sensor_id;sensor_type;location;lat;lon;timestamp;temperature;humidity
1578;DHT22;57623;53.608;10.004;2024-03-07T00:02:10;4.20;99.90
1578;DHT22;57623;53.608;10.004;2024-03-07T00:04:39;4.30;99.90
1578;DHT22;57623;53.608;10.004;2024-03-07T00:07:07;4.30;99.90
1578;DHT22;57623;53.608;10.004;2024-03-07T00:09:35;4.30;99.90
1578;DHT22;57623;53.608;10.004;2024-03-07T00:12:04;4.30;99.90
1578;DHT22;57623;53.608;10.004;2024-03-07T00:14:34;4.30;99.90
1578;DHT22;57623;53.608;10.004;2024-03-07T00:17:02;4.40;99.90
1578;DHT22;57623;53.608;10.004;2024-03-07T00:19:31;4.40;99.90
1578;DHT22;57623;53.608;10.004;2024-03-07T00:22:00;4.50;99.90
1578;DHT22;57623;53.608;10.004;2024-03-07T00:24:27;4.50;99.90
1578;DHT22;57623;53.608;10.004;2024-03-07T00:26:55;4.50;99.90
1578;DHT22;57623;53.608;10.004;2024-03-07T00:29:24;4.50;99.90
1578;DHT22;57623;53.608;10.004;2024-03-07T00:31:52;4.50;99.90
1578;DHT22;57623;53.608;10.004;2024-03-07T00:34:20;4.50;99.90
1578;DHT22;57623;53.608;10.004;2024-03-07T00:36:53;4.50;99.90
1578;DHT22;57623;53.608;10.004;2024-03-07T00:39:23;4.60;99.90
1578;DHT22;57623;53.608;10.004;2024-03-07T00:41:51;4.60;99.90
1578;DHT22;57623;53.608;10.004;2024-03-07T00:44:19;4.60;99.90
1578;DHT22;57623;53.608;10.004;2024-03-07T00:46:47;4.70;99.90
1578;DHT22;57623;53.608;10.004;2024-03-07T00:49:15;4.70;99.90
1578;DHT22;57623;53.608;10.004;2024-03-07T00:51:43;4.70;99.90
1578;DHT22;57623;53.608;10.004;2024-03-07T00:54:13;4.70;99.90
1578;DHT22;57623;53.608;10.004;2024-03-07T00:56:41;4.80;99.90
1578;DHT22;57623;53.608;10.004;2024-03-07T00:59:09;4.80;99.90
1578;DHT22;57623;53.608;10.004;2024-03-07T01:01:37;4.80;99.90
1578;DHT22;57623;53.608;10.004;2024-03-07T01:04:05;4.80;99.90
1578;DHT22;57623;53.608;10.004;2024-03-07T01:06:33;4.80;99.90
1578;DHT22;57623;53.608;10.004;2024-03-07T01:09:01;4.80;99.90
1578;DHT22;57623;53.608;10.004;2024-03-07T01:11:30;4.90;99.90
1578;DHT22;57623;53.608;10.004;2024-03-07T01:13:58;4.90;99.90
1578;DHT22;57623;53.608;10.004;2024-03-07T01:16:26;4.90;99.90
1578;DHT22;57623;53.608;10.004;2024-03-07T01:18:54;4.90;99.90
1578;DHT22;57623;53.608;10.004;2024-03-07T01:21:22;5.00;99.90
1578;DHT22;57623;53.608;10.004;2024-03-07T01:23:50;4.90;99.90
1578;DHT22;57623;53.608;10.004;2024-03-07T01:26:19;5.00;99.90
1578;DHT22;57623;53.608;10.004;2024-03-07T01:28:48;5.00;99.90
1578;DHT22;57623;53.608;10.004;2024-03-07T01:31:16;4.90;99.90
1578;DHT22;57623;53.608;10.004;2024-03-07T01:33:45;5.00;99.90
1578;DHT22;57623;53.608;10.004;2024-03-07T01:36:13;5.00;99.90
1578;DHT22;57623;53.608;10.004;2024-03-07T01:38:40;5.00;99.90
1578;DHT22;57623;53.608;10.004;2024-03-07T01:41:08;5.00;99.90
1578;DHT22;57623;53.608;10.004;2024-03-07T01:43:37;5.00;99.90
1578;DHT22;57623;53.608;10.004;2024-03-07T01:46:06;5.00;99.90
1578;DHT22;57623;53.608;10.004;2024-03-07T01:48:34;5.00;99.90
1578;DHT22;57623;53.608;10.004;2024-03-07T01:51:03;5.10;99.90
1578;DHT22;57623;53.608;10.004;2024-03-07T01:53:33;5.00;99.90
1578;DHT22;57623;53.608;10.004;2024-03-07T01:56:02;5.10;99.90
1578;DHT22;57623;53.608;10.004;2024-03-07T01:58:31;5.10;99.90
1578;DHT22;57623;53.608;10.004;2024-03-07T02:00:59;5.10;99.90
1578;DHT22;57623;53.608;10.004;2024-03-07T02:03:29;5.10;99.90
1578;DHT22;57623;53.608;10.004;2024-03-07T02:05:57;5.10;99.90
1578;DHT22;57623;53.608;10.004;2024-03-07T02:08:25;5.10;99.90
1578;DHT22;57623;53.608;10.004;2024-03-07T02:10:53;5.10;99.90
1578;DHT22;57623;53.608;10.004;2024-03-07T02:13:21;5.10;99.90
1578;DHT22;57623;53.608;10.004;2024-03-07T02:15:49;5.10;99.90
1578;DHT22;57623;53.608;10.004;2024-03-07T02:18:17;5.10;99.90
1578;DHT22;57623;53.608;10.004;2024-03-07T02:20:47;5.10;99.90
1578;DHT22;57623;53.608;10.004;2024-03-07T02:23:15;5.10;99.90
1578;DHT22;57623;53.608;10.004;2024-03-07T02:25:43;5.10;99.90
1578;DHT22;57623;53.608;10.004;2024-03-07T02:28:11;5.10;99.90
1578;DHT22;57623;53.608;10.004;2024-03-07T02:30:39;5.10;99.90
1578;DHT22;57623;53.608;10.004;2024-03-07T02:33:07;5.10;99.90
1578;DHT22;57623;53.608;10.004;2024-03-07T02:35:36;5.10;99.90
1578;DHT22;57623;53.608;10.004;2024-03-07T02:38:06;5.20;99.90
1578;DHT22;57623;53.608;10.004;2024-03-07T02:40:35;5.10;99.90
1578;DHT22;57623;53.608;10.004;2024-03-07T02:43:03;5.10;99.90
1578;DHT22;57623;53.608;10.004;2024-03-07T02:45:32;5.10;99.90
1578;DHT22;57623;53.608;10.004;2024-03-07T02:48:00;5.10;99.90
1578;DHT22;57623;53.608;10.004;2024-03-07T02:50:28;5.10;99.90
1578;DHT22;57623;53.608;10.004;2024-03-07T02:52:56;5.10;99.90
1578;DHT22;57623;53.608;10.004;2024-03-07T02:55:26;5.10;99.90
1578;DHT22;57623;53.608;10.004;2024-03-07T02:57:54;5.20;99.90
1578;DHT22;57623;53.608;10.004;2024-03-07T03:00:24;5.10;99.90
1578;DHT22;57623;53.608;10.004;2024-03-07T03:02:56;5.10;99.90
1578;DHT22;57623;53.608;10.004;2024-03-07T03:05:24;5.10;99.90
1578;DHT22;57623;53.608;10.004;2024-03-07T03:07:52;5.20;99.90
1578;DHT22;57623;53.608;10.004;2024-03-07T03:10:22;5.10;99.90
1578;DHT22;57623;53.608;10.004;2024-03-07T03:12:55;5.10;99.90
1578;DHT22;57623;53.608;10.004;2024-03-07T03:15:24;5.10;99.90
1578;DHT22;57623;53.608;10.004;2024-03-07T03:17:52;5.10;99.90
1578;DHT22;57623;53.608;10.004;2024-03-07T03:20:21;5.10;99.90
1578;DHT22;57623;53.608;10.004;2024-03-07T03:23:01;5.10;99.90
1578;DHT22;57623;53.608;10.004;2024-03-07T03:25:33;5.10;99.90
1578;DHT22;57623;53.608;10.004;2024-03-07T03:28:04;5.10;99.90
1578;DHT22;57623;53.608;10.004;2024-03-07T03:30:33;5.10;99.90
1578;DHT22;57623;53.608;10.004;2024-03-07T03:33:01;5.10;99.90
1578;DHT22;57623;53.608;10.004;2024-03-07T03:35:29;5.10;99.90
1578;DHT22;57623;53.608;10.004;2024-03-07T03:37:57;5.20;99.90
1578;DHT22;57623;53.608;10.004;2024-03-07T03:40:25;5.10;99.90
1578;DHT22;57623;53.608;10.004;2024-03-07T03:42:53;5.10;99.90
1578;DHT22;57623;53.608;10.004;2024-03-07T03:45:22;5.10;99.90
1578;DHT22;57623;53.608;10.004;2024-03-07T03:47:52;5.10;99.90
1578;DHT22;57623;53.608;10.004;2024-03-07T03:50:20;5.10;99.90
1578;DHT22;57623;53.608;10.004;2024-03-07T03:52:50;5.00;99.90
1578;DHT22;57623;53.608;10.004;2024-03-07T03:55:18;5.00;99.90
1578;DHT22;57623;53.608;10.004;2024-03-07T03:57:47;5.00;99.90
1578;DHT22;57623;53.608;10.004;2024-03-07T04:00:17;5.00;99.90
1578;DHT22;57623;53.608;10.004;2024-03-07T04:02:47;5.00;99.90
1578;DHT22;57623;53.608;10.004;2024-03-07T04:05:17;5.00;99.90
1578;DHT22;57623;53.608;10.004;2024-03-07T04:07:46;5.00;99.90
1578;DHT22;57623;53.608;10.004;2024-03-07T04:10:15;4.90;99.90
1578;DHT22;57623;53.608;10.004;2024-03-07T04:12:44;4.90;99.90
1578;DHT22;57623;53.608;10.004;2024-03-07T04:15:13;4.90;99.90
1578;DHT22;57623;53.608;10.004;2024-03-07T04:17:43;5.00;99.90
1578;DHT22;57623;53.608;10.004;2024-03-07T04:20:14;4.90;99.90
1578;DHT22;57623;53.608;10.004;2024-03-07T04:22:45;4.90;99.90
1578;DHT22;57623;53.608;10.004;2024-03-07T04:25:13;4.90;99.90
1578;DHT22;57623;53.608;10.004;2024-03-07T04:27:41;4.90;99.90
1578;DHT22;57623;53.608;10.004;2024-03-07T04:30:10;4.90;99.90
1578;DHT22;57623;53.608;10.004;2024-03-07T04:32:38;4.90;99.90
1578;DHT22;57623;53.608;10.004;2024-03-07T04:35:09;4.90;99.90
1578;DHT22;57623;53.608;10.004;2024-03-07T04:37:43;4.80;99.90
1578;DHT22;57623;53.608;10.004;2024-03-07T04:40:12;4.80;99.90
1578;DHT22;57623;53.608;10.004;2024-03-07T04:42:45;4.80;99.90
1578;DHT22;57623;53.608;10.004;2024-03-07T04:45:13;4.70;99.90
1578;DHT22;57623;53.608;10.004;2024-03-07T04:47:42;4.70;99.90
1578;DHT22;57623;53.608;10.004;2024-03-07T04:50:12;4.70;99.90
1578;DHT22;57623;53.608;10.004;2024-03-07T04:52:45;4.70;99.90
1578;DHT22;57623;53.608;10.004;2024-03-07T04:55:15;4.60;99.90
1578;DHT22;57623;53.608;10.004;2024-03-07T04:57:43;4.60;99.90
1578;DHT22;57623;53.608;10.004;2024-03-07T05:00:12;4.60;99.90
1578;DHT22;57623;53.608;10.004;2024-03-07T05:02:44;4.60;99.90
1578;DHT22;57623;53.608;10.004;2024-03-07T05:05:13;4.60;99.90
1578;DHT22;57623;53.608;10.004;2024-03-07T05:07:46;4.50;99.90
1578;DHT22;57623;53.608;10.004;2024-03-07T05:10:14;4.50;99.90
1578;DHT22;57623;53.608;10.004;2024-03-07T05:12:42;4.50;99.90
1578;DHT22;57623;53.608;10.004;2024-03-07T05:15:10;4.40;99.90
1578;DHT22;57623;53.608;10.004;2024-03-07T05:17:38;4.40;99.90
1578;DHT22;57623;53.608;10.004;2024-03-07T05:20:09;4.30;99.90
1578;DHT22;57623;53.608;10.004;2024-03-07T05:22:39;4.30;99.90
1578;DHT22;57623;53.608;10.004;2024-03-07T05:25:13;4.30;99.90
1578;DHT22;57623;53.608;10.004;2024-03-07T05:27:43;4.20;99.90
1578;DHT22;57623;53.608;10.004;2024-03-07T05:30:12;4.20;99.90
1578;DHT22;57623;53.608;10.004;2024-03-07T05:32:42;4.10;99.90
1578;DHT22;57623;53.608;10.004;2024-03-07T05:35:11;4.00;99.90
1578;DHT22;57623;53.608;10.004;2024-03-07T05:37:39;4.00;99.90
1578;DHT22;57623;53.608;10.004;2024-03-07T05:40:15;4.00;99.90
1578;DHT22;57623;53.608;10.004;2024-03-07T05:42:43;4.00;99.90
1578;DHT22;57623;53.608;10.004;2024-03-07T05:45:11;3.90;99.90
1578;DHT22;57623;53.608;10.004;2024-03-07T05:47:41;3.90;99.90
1578;DHT22;57623;53.608;10.004;2024-03-07T05:50:17;3.90;99.90
1578;DHT22;57623;53.608;10.004;2024-03-07T05:52:45;3.80;99.90
1578;DHT22;57623;53.608;10.004;2024-03-07T05:55:16;3.80;99.90
1578;DHT22;57623;53.608;10.004;2024-03-07T05:57:46;3.80;99.90
1578;DHT22;57623;53.608;10.004;2024-03-07T06:00:15;3.80;99.90
1578;DHT22;57623;53.608;10.004;2024-03-07T06:02:54;3.80;99.90
1578;DHT22;57623;53.608;10.004;2024-03-07T06:05:22;3.80;99.90
1578;DHT22;57623;53.608;10.004;2024-03-07T06:07:50;3.80;99.90
1578;DHT22;57623;53.608;10.004;2024-03-07T06:10:20;3.80;99.90
1578;DHT22;57623;53.608;10.004;2024-03-07T06:12:50;3.80;99.90
1578;DHT22;57623;53.608;10.004;2024-03-07T06:15:36;3.70;99.90
1578;DHT22;57623;53.608;10.004;2024-03-07T06:18:05;3.70;99.90
1578;DHT22;57623;53.608;10.004;2024-03-07T06:20:34;3.70;99.90
1578;DHT22;57623;53.608;10.004;2024-03-07T06:23:03;3.70;99.90
1578;DHT22;57623;53.608;10.004;2024-03-07T06:25:33;3.70;99.90
1578;DHT22;57623;53.608;10.004;2024-03-07T06:28:04;3.70;99.90
1578;DHT22;57623;53.608;10.004;2024-03-07T06:30:38;3.70;99.90
1578;DHT22;57623;53.608;10.004;2024-03-07T06:33:06;3.70;99.90
1578;DHT22;57623;53.608;10.004;2024-03-07T06:35:34;3.70;99.90
1578;DHT22;57623;53.608;10.004;2024-03-07T06:38:04;3.70;99.90
1578;DHT22;57623;53.608;10.004;2024-03-07T06:40:34;3.80;99.90
1578;DHT22;57623;53.608;10.004;2024-03-07T06:43:03;3.90;99.90
1578;DHT22;57623;53.608;10.004;2024-03-07T06:45:33;3.80;99.90
1578;DHT22;57623;53.608;10.004;2024-03-07T06:48:02;3.80;99.90
1578;DHT22;57623;53.608;10.004;2024-03-07T06:50:31;3.80;99.90
1578;DHT22;57623;53.608;10.004;2024-03-07T06:53:06;3.80;99.90
1578;DHT22;57623;53.608;10.004;2024-03-07T06:55:36;3.80;99.90
1578;DHT22;57623;53.608;10.004;2024-03-07T06:58:05;3.80;99.90
1578;DHT22;57623;53.608;10.004;2024-03-07T07:00:33;3.80;99.90
1578;DHT22;57623;53.608;10.004;2024-03-07T07:03:04;3.80;99.90
1578;DHT22;57623;53.608;10.004;2024-03-07T07:05:33;3.80;99.90
1578;DHT22;57623;53.608;10.004;2024-03-07T07:08:03;3.80;99.90
1578;DHT22;57623;53.608;10.004;2024-03-07T07:10:31;3.80;99.90
1578;DHT22;57623;53.608;10.004;2024-03-07T07:13:00;3.80;99.90
1578;DHT22;57623;53.608;10.004;2024-03-07T07:15:29;3.80;99.90
1578;DHT22;57623;53.608;10.004;2024-03-07T07:17:57;3.80;99.90
1578;DHT22;57623;53.608;10.004;2024-03-07T07:20:25;3.80;99.90
1578;DHT22;57623;53.608;10.004;2024-03-07T07:22:54;3.80;99.90
1578;DHT22;57623;53.608;10.004;2024-03-07T07:25:24;3.70;99.90
1578;DHT22;57623;53.608;10.004;2024-03-07T07:27:54;3.70;99.90
1578;DHT22;57623;53.608;10.004;2024-03-07T07:30:24;3.70;99.90
1578;DHT22;57623;53.608;10.004;2024-03-07T07:32:53;3.80;99.90
1578;DHT22;57623;53.608;10.004;2024-03-07T07:35:22;3.80;99.90
1578;DHT22;57623;53.608;10.004;2024-03-07T07:37:52;3.80;99.90
1578;DHT22;57623;53.608;10.004;2024-03-07T07:40:23;3.80;99.90
1578;DHT22;57623;53.608;10.004;2024-03-07T07:42:53;3.80;99.90
1578;DHT22;57623;53.608;10.004;2024-03-07T07:45:23;3.80;99.90
1578;DHT22;57623;53.608;10.004;2024-03-07T07:47:52;3.80;99.90
1578;DHT22;57623;53.608;10.004;2024-03-07T07:50:22;3.80;99.90
1578;DHT22;57623;53.608;10.004;2024-03-07T07:52:52;3.80;99.90
1578;DHT22;57623;53.608;10.004;2024-03-07T07:55:22;3.80;99.90
1578;DHT22;57623;53.608;10.004;2024-03-07T07:57:52;3.80;99.90
1578;DHT22;57623;53.608;10.004;2024-03-07T08:00:23;3.80;99.90
1578;DHT22;57623;53.608;10.004;2024-03-07T08:02:53;3.80;99.90
1578;DHT22;57623;53.608;10.004;2024-03-07T08:05:23;3.80;99.90
1578;DHT22;57623;53.608;10.004;2024-03-07T08:07:53;3.90;99.90
1578;DHT22;57623;53.608;10.004;2024-03-07T08:10:23;3.90;99.90
1578;DHT22;57623;53.608;10.004;2024-03-07T08:12:51;3.90;99.90
1578;DHT22;57623;53.608;10.004;2024-03-07T08:15:19;3.90;99.90
1578;DHT22;57623;53.608;10.004;2024-03-07T08:17:49;3.90;99.90
1578;DHT22;57623;53.608;10.004;2024-03-07T08:20:19;3.90;99.90
1578;DHT22;57623;53.608;10.004;2024-03-07T08:22:50;3.90;99.90
1578;DHT22;57623;53.608;10.004;2024-03-07T08:25:20;3.90;99.90
1578;DHT22;57623;53.608;10.004;2024-03-07T08:27:51;3.90;99.90
1578;DHT22;57623;53.608;10.004;2024-03-07T08:30:20;3.90;99.90
1578;DHT22;57623;53.608;10.004;2024-03-07T08:32:52;4.00;99.90
1578;DHT22;57623;53.608;10.004;2024-03-07T08:35:20;4.00;99.90
1578;DHT22;57623;53.608;10.004;2024-03-07T08:37:51;4.00;99.90
1578;DHT22;57623;53.608;10.004;2024-03-07T08:40:23;4.00;99.90
1578;DHT22;57623;53.608;10.004;2024-03-07T08:42:55;4.00;99.90
1578;DHT22;57623;53.608;10.004;2024-03-07T08:45:25;4.10;99.90
1578;DHT22;57623;53.608;10.004;2024-03-07T08:47:56;4.10;99.90
1578;DHT22;57623;53.608;10.004;2024-03-07T08:50:27;4.20;99.90
1578;DHT22;57623;53.608;10.004;2024-03-07T08:52:56;4.30;99.90
1578;DHT22;57623;53.608;10.004;2024-03-07T08:55:24;4.40;99.90
1578;DHT22;57623;53.608;10.004;2024-03-07T08:57:53;4.40;99.90
1578;DHT22;57623;53.608;10.004;2024-03-07T09:00:22;4.40;99.90
1578;DHT22;57623;53.608;10.004;2024-03-07T09:02:54;4.40;99.90
1578;DHT22;57623;53.608;10.004;2024-03-07T09:05:26;4.40;99.90
1578;DHT22;57623;53.608;10.004;2024-03-07T09:07:55;4.40;99.90
1578;DHT22;57623;53.608;10.004;2024-03-07T09:10:23;4.50;99.90
1578;DHT22;57623;53.608;10.004;2024-03-07T09:12:53;4.50;99.90
1578;DHT22;57623;53.608;10.004;2024-03-07T09:15:22;4.50;99.90
1578;DHT22;57623;53.608;10.004;2024-03-07T09:17:51;4.50;99.90
1578;DHT22;57623;53.608;10.004;2024-03-07T09:20:21;4.40;99.90
1578;DHT22;57623;53.608;10.004;2024-03-07T09:22:50;4.50;99.90
1578;DHT22;57623;53.608;10.004;2024-03-07T09:25:21;4.40;99.90
1578;DHT22;57623;53.608;10.004;2024-03-07T09:27:50;4.40;99.90
1578;DHT22;57623;53.608;10.004;2024-03-07T09:30:19;4.30;99.90
1578;DHT22;57623;53.608;10.004;2024-03-07T09:32:51;4.40;99.90
1578;DHT22;57623;53.608;10.004;2024-03-07T09:35:23;4.40;99.90
1578;DHT22;57623;53.608;10.004;2024-03-07T09:37:51;4.40;99.90
1578;DHT22;57623;53.608;10.004;2024-03-07T09:40:20;4.40;99.90
1578;DHT22;57623;53.608;10.004;2024-03-07T09:42:52;4.40;99.90
1578;DHT22;57623;53.608;10.004;2024-03-07T09:45:23;4.40;99.90
1578;DHT22;57623;53.608;10.004;2024-03-07T09:47:53;4.30;99.90
1578;DHT22;57623;53.608;10.004;2024-03-07T09:50:23;4.40;99.90
1578;DHT22;57623;53.608;10.004;2024-03-07T09:52:55;4.30;99.90
1578;DHT22;57623;53.608;10.004;2024-03-07T09:55:24;4.30;99.90
1578;DHT22;57623;53.608;10.004;2024-03-07T09:57:54;4.30;99.90
1578;DHT22;57623;53.608;10.004;2024-03-07T10:00:24;4.30;99.90
1578;DHT22;57623;53.608;10.004;2024-03-07T10:02:58;4.30;99.90
1578;DHT22;57623;53.608;10.004;2024-03-07T10:05:28;4.30;99.90
1578;DHT22;57623;53.608;10.004;2024-03-07T10:07:58;4.30;99.90
1578;DHT22;57623;53.608;10.004;2024-03-07T10:10:27;4.30;99.90
1578;DHT22;57623;53.608;10.004;2024-03-07T10:12:57;4.40;99.90
1578;DHT22;57623;53.608;10.004;2024-03-07T10:15:28;4.40;99.90
1578;DHT22;57623;53.608;10.004;2024-03-07T10:17:56;4.40;99.90
1578;DHT22;57623;53.608;10.004;2024-03-07T10:20:24;4.40;99.90
1578;DHT22;57623;53.608;10.004;2024-03-07T10:22:55;4.40;99.90
1578;DHT22;57623;53.608;10.004;2024-03-07T10:25:23;4.50;99.90
1578;DHT22;57623;53.608;10.004;2024-03-07T10:27:56;4.50;99.90
1578;DHT22;57623;53.608;10.004;2024-03-07T10:30:26;4.50;99.90
1578;DHT22;57623;53.608;10.004;2024-03-07T10:32:56;4.60;99.90
1578;DHT22;57623;53.608;10.004;2024-03-07T10:35:27;4.60;99.90
1578;DHT22;57623;53.608;10.004;2024-03-07T10:37:57;4.60;99.90
1578;DHT22;57623;53.608;10.004;2024-03-07T10:40:28;4.60;99.90
1578;DHT22;57623;53.608;10.004;2024-03-07T10:42:57;4.60;99.90
1578;DHT22;57623;53.608;10.004;2024-03-07T10:45:30;4.70;99.90
1578;DHT22;57623;53.608;10.004;2024-03-07T10:48:03;4.70;99.90
1578;DHT22;57623;53.608;10.004;2024-03-07T10:50:43;4.80;99.90
1578;DHT22;57623;53.608;10.004;2024-03-07T10:53:20;4.90;99.90
1578;DHT22;57623;53.608;10.004;2024-03-07T10:56:04;5.00;99.90
1578;DHT22;57623;53.608;10.004;2024-03-07T10:58:43;5.10;99.90
1578;DHT22;57623;53.608;10.004;2024-03-07T11:01:14;5.20;99.90
1578;DHT22;57623;53.608;10.004;2024-03-07T11:03:44;5.30;99.90
1578;DHT22;57623;53.608;10.004;2024-03-07T11:06:13;5.30;99.90
1578;DHT22;57623;53.608;10.004;2024-03-07T11:08:44;5.40;99.90
1578;DHT22;57623;53.608;10.004;2024-03-07T11:11:12;5.40;99.90
1578;DHT22;57623;53.608;10.004;2024-03-07T11:13:41;5.50;99.90
1578;DHT22;57623;53.608;10.004;2024-03-07T11:16:10;5.60;99.90
1578;DHT22;57623;53.608;10.004;2024-03-07T11:18:41;5.60;99.90
1578;DHT22;57623;53.608;10.004;2024-03-07T11:21:42;5.60;99.90
1578;DHT22;57623;53.608;10.004;2024-03-07T11:24:22;5.60;99.90
1578;DHT22;57623;53.608;10.004;2024-03-07T11:26:52;5.70;99.90
1578;DHT22;57623;53.608;10.004;2024-03-07T11:29:40;5.70;99.90
1578;DHT22;57623;53.608;10.004;2024-03-07T11:32:10;5.70;99.90
1578;DHT22;57623;53.608;10.004;2024-03-07T11:34:40;5.80;99.90
1578;DHT22;57623;53.608;10.004;2024-03-07T11:37:09;5.80;99.90
1578;DHT22;57623;53.608;10.004;2024-03-07T11:39:46;5.80;99.90
1578;DHT22;57623;53.608;10.004;2024-03-07T11:42:23;5.90;99.90
1578;DHT22;57623;53.608;10.004;2024-03-07T11:44:53;5.90;99.90
1578;DHT22;57623;53.608;10.004;2024-03-07T11:47:23;6.00;99.90
1578;DHT22;57623;53.608;10.004;2024-03-07T11:49:52;6.00;99.90
1578;DHT22;57623;53.608;10.004;2024-03-07T11:52:20;6.00;99.90
1578;DHT22;57623;53.608;10.004;2024-03-07T11:54:49;6.00;99.90
1578;DHT22;57623;53.608;10.004;2024-03-07T11:57:19;6.10;99.90
1578;DHT22;57623;53.608;10.004;2024-03-07T11:59:53;6.10;99.90
1578;DHT22;57623;53.608;10.004;2024-03-07T12:02:21;6.20;99.90
1578;DHT22;57623;53.608;10.004;2024-03-07T12:04:50;6.20;99.90
1578;DHT22;57623;53.608;10.004;2024-03-07T12:07:18;6.20;99.90
1578;DHT22;57623;53.608;10.004;2024-03-07T12:09:51;6.20;99.90
1578;DHT22;57623;53.608;10.004;2024-03-07T12:12:22;6.20;99.90
1578;DHT22;57623;53.608;10.004;2024-03-07T12:14:52;6.30;99.90
1578;DHT22;57623;53.608;10.004;2024-03-07T12:17:20;6.30;99.90
1578;DHT22;57623;53.608;10.004;2024-03-07T12:19:49;6.30;99.90
1578;DHT22;57623;53.608;10.004;2024-03-07T12:22:19;6.30;99.90
1578;DHT22;57623;53.608;10.004;2024-03-07T12:25:01;6.40;99.90
1578;DHT22;57623;53.608;10.004;2024-03-07T12:27:30;6.40;99.90
1578;DHT22;57623;53.608;10.004;2024-03-07T12:29:58;6.40;99.90
1578;DHT22;57623;53.608;10.004;2024-03-07T12:32:29;6.40;99.90
1578;DHT22;57623;53.608;10.004;2024-03-07T12:34:58;6.40;99.90
1578;DHT22;57623;53.608;10.004;2024-03-07T12:37:26;6.40;99.90
1578;DHT22;57623;53.608;10.004;2024-03-07T12:39:56;6.40;99.90
1578;DHT22;57623;53.608;10.004;2024-03-07T12:42:29;6.40;99.90
1578;DHT22;57623;53.608;10.004;2024-03-07T12:44:59;6.40;99.90
1578;DHT22;57623;53.608;10.004;2024-03-07T12:47:27;6.40;99.90
1578;DHT22;57623;53.608;10.004;2024-03-07T12:49:55;6.50;99.90
1578;DHT22;57623;53.608;10.004;2024-03-07T12:52:25;6.50;99.90
1578;DHT22;57623;53.608;10.004;2024-03-07T12:54:53;6.50;99.90
1578;DHT22;57623;53.608;10.004;2024-03-07T12:57:22;6.60;99.90
1578;DHT22;57623;53.608;10.004;2024-03-07T12:59:52;6.60;99.90
1578;DHT22;57623;53.608;10.004;2024-03-07T13:02:22;6.70;99.90
1578;DHT22;57623;53.608;10.004;2024-03-07T13:04:53;6.70;99.90
1578;DHT22;57623;53.608;10.004;2024-03-07T13:07:22;6.80;99.90
1578;DHT22;57623;53.608;10.004;2024-03-07T13:09:51;6.80;99.90
1578;DHT22;57623;53.608;10.004;2024-03-07T13:12:19;6.80;99.90
1578;DHT22;57623;53.608;10.004;2024-03-07T13:14:47;6.90;99.90
1578;DHT22;57623;53.608;10.004;2024-03-07T13:17:17;6.90;99.90
1578;DHT22;57623;53.608;10.004;2024-03-07T13:19:45;7.00;99.90
1578;DHT22;57623;53.608;10.004;2024-03-07T13:22:16;7.10;99.90
1578;DHT22;57623;53.608;10.004;2024-03-07T13:24:44;7.10;99.90
1578;DHT22;57623;53.608;10.004;2024-03-07T13:27:12;7.10;99.90
1578;DHT22;57623;53.608;10.004;2024-03-07T13:29:46;7.30;99.90
1578;DHT22;57623;53.608;10.004;2024-03-07T13:32:17;7.50;99.90
1578;DHT22;57623;53.608;10.004;2024-03-07T13:34:45;7.60;99.90
1578;DHT22;57623;53.608;10.004;2024-03-07T13:37:14;7.60;99.90
1578;DHT22;57623;53.608;10.004;2024-03-07T13:39:45;7.60;99.90
1578;DHT22;57623;53.608;10.004;2024-03-07T13:42:13;7.50;99.90
1578;DHT22;57623;53.608;10.004;2024-03-07T13:44:42;8.00;99.90
1578;DHT22;57623;53.608;10.004;2024-03-07T13:47:10;8.30;99.90
1578;DHT22;57623;53.608;10.004;2024-03-07T13:49:39;8.40;99.90
1578;DHT22;57623;53.608;10.004;2024-03-07T13:52:09;8.50;99.90
1578;DHT22;57623;53.608;10.004;2024-03-07T13:54:45;8.80;99.90
1578;DHT22;57623;53.608;10.004;2024-03-07T13:57:21;8.80;99.90
1578;DHT22;57623;53.608;10.004;2024-03-07T14:00:00;8.80;99.90
1578;DHT22;57623;53.608;10.004;2024-03-07T14:03:26;9.40;99.90
1578;DHT22;57623;53.608;10.004;2024-03-07T14:06:02;11.00;99.90
1578;DHT22;57623;53.608;10.004;2024-03-07T14:08:56;11.70;99.90
1578;DHT22;57623;53.608;10.004;2024-03-07T14:21:16;11.60;99.90
1578;DHT22;57623;53.608;10.004;2024-03-07T14:24:09;11.10;99.90
1578;DHT22;57623;53.608;10.004;2024-03-07T14:27:10;10.70;99.90
1578;DHT22;57623;53.608;10.004;2024-03-07T14:29:46;10.40;99.90
1578;DHT22;57623;53.608;10.004;2024-03-07T14:32:16;10.10;99.90
1578;DHT22;57623;53.608;10.004;2024-03-07T14:34:59;9.90;99.90
1578;DHT22;57623;53.608;10.004;2024-03-07T14:37:36;9.90;99.90
1578;DHT22;57623;53.608;10.004;2024-03-07T14:40:08;9.90;99.90
1578;DHT22;57623;53.608;10.004;2024-03-07T14:42:41;9.70;99.90
1578;DHT22;57623;53.608;10.004;2024-03-07T14:45:12;9.70;99.90
1578;DHT22;57623;53.608;10.004;2024-03-07T14:47:44;9.70;99.90
1578;DHT22;57623;53.608;10.004;2024-03-07T14:50:12;9.70;99.90
1578;DHT22;57623;53.608;10.004;2024-03-07T14:52:44;9.70;99.90
1578;DHT22;57623;53.608;10.004;2024-03-07T14:55:12;9.70;99.90
1578;DHT22;57623;53.608;10.004;2024-03-07T14:57:46;9.70;99.90
1578;DHT22;57623;53.608;10.004;2024-03-07T15:00:14;9.80;99.90
1578;DHT22;57623;53.608;10.004;2024-03-07T15:03:00;9.80;99.90
1578;DHT22;57623;53.608;10.004;2024-03-07T15:05:29;9.80;99.90
1578;DHT22;57623;53.608;10.004;2024-03-07T15:07:58;9.80;99.90
1578;DHT22;57623;53.608;10.004;2024-03-07T15:10:31;9.70;99.90
1578;DHT22;57623;53.608;10.004;2024-03-07T15:12:59;9.60;99.90
1578;DHT22;57623;53.608;10.004;2024-03-07T15:15:29;9.60;99.90
1578;DHT22;57623;53.608;10.004;2024-03-07T15:17:58;9.50;99.90
1578;DHT22;57623;53.608;10.004;2024-03-07T15:20:27;9.40;99.90
1578;DHT22;57623;53.608;10.004;2024-03-07T15:22:59;9.50;99.90
1578;DHT22;57623;53.608;10.004;2024-03-07T15:25:28;9.50;99.90
1578;DHT22;57623;53.608;10.004;2024-03-07T15:27:57;9.50;99.90
1578;DHT22;57623;53.608;10.004;2024-03-07T15:30:26;9.50;99.90
1578;DHT22;57623;53.608;10.004;2024-03-07T15:32:59;9.40;99.90
1578;DHT22;57623;53.608;10.004;2024-03-07T15:35:27;9.30;99.90
1578;DHT22;57623;53.608;10.004;2024-03-07T15:37:58;9.30;99.90
1578;DHT22;57623;53.608;10.004;2024-03-07T15:40:26;9.20;99.90
1578;DHT22;57623;53.608;10.004;2024-03-07T15:42:56;9.10;99.90
1578;DHT22;57623;53.608;10.004;2024-03-07T15:45:25;9.00;99.90
1578;DHT22;57623;53.608;10.004;2024-03-07T15:47:55;8.90;99.90
1578;DHT22;57623;53.608;10.004;2024-03-07T15:50:26;8.90;99.90
1578;DHT22;57623;53.608;10.004;2024-03-07T15:52:56;8.90;99.90
1578;DHT22;57623;53.608;10.004;2024-03-07T15:55:27;8.80;99.90
1578;DHT22;57623;53.608;10.004;2024-03-07T15:57:57;8.80;99.90
1578;DHT22;57623;53.608;10.004;2024-03-07T16:00:26;8.80;99.90
1578;DHT22;57623;53.608;10.004;2024-03-07T16:02:56;8.70;99.90
1578;DHT22;57623;53.608;10.004;2024-03-07T16:05:26;8.70;99.90
1578;DHT22;57623;53.608;10.004;2024-03-07T16:07:55;8.70;99.90
1578;DHT22;57623;53.608;10.004;2024-03-07T16:10:26;8.60;99.90
1578;DHT22;57623;53.608;10.004;2024-03-07T16:12:58;8.60;99.90
1578;DHT22;57623;53.608;10.004;2024-03-07T16:15:27;8.50;99.90